Time;durP1;ratioP1;P1;durP2;ratioP2;P2;SDS_P1;SDS_P2;PMS_P1;PMS_P2;Temp;Humidity;BMP_temperature;BMP_pressure;BME280_temperature;BME280_humidity;BME280_pressure;Samples;Min_cycle;Max_cycle;Signal;HPM_P1;HPM_P2
2020/12/20 00:01:01;;;;;;;15.00;11.40;;;4.30;99.90;;;;;;5019472;28;20463;-64
2020/12/20 00:03:28;;;;;;;16.03;11.43;;;4.30;99.90;;;;;;5018263;28;20487;-64
2020/12/20 00:05:55;;;;;;;16.83;12.07;;;4.30;99.90;;;;;;5019969;28;20474;-64
2020/12/20 00:08:21;;;;;;;18.17;12.20;;;4.30;99.90;;;;;;5018448;28;20838;-62
2020/12/20 00:10:47;;;;;;;17.20;12.40;;;4.30;99.90;;;;;;5018028;28;20491;-64
2020/12/20 00:13:17;;;;;;;19.50;13.87;;;4.30;99.90;;;;;;5018269;28;20945;-65
2020/12/20 00:15:43;;;;;;;15.63;11.90;;;4.30;99.90;;;;;;5018251;28;20471;-63
2020/12/20 00:18:09;;;;;;;18.43;13.33;;;4.30;99.90;;;;;;5018695;28;20522;-63
2020/12/20 00:20:35;;;;;;;20.93;14.37;;;4.20;99.90;;;;;;5018281;28;20491;-63
2020/12/20 00:23:02;;;;;;;19.73;14.50;;;4.20;99.90;;;;;;5019441;28;20518;-63
2020/12/20 00:25:28;;;;;;;22.77;15.30;;;4.20;99.90;;;;;;5019051;28;20482;-65
2020/12/20 00:27:54;;;;;;;21.93;15.47;;;4.20;99.90;;;;;;5018359;28;20467;-63
2020/12/20 00:30:20;;;;;;;22.23;15.60;;;4.20;99.90;;;;;;5017788;28;20535;-63
2020/12/20 00:32:47;;;;;;;20.33;14.37;;;4.20;99.90;;;;;;5018032;28;20479;-63
2020/12/20 00:35:13;;;;;;;20.20;14.30;;;4.20;99.90;;;;;;5018407;28;20464;-63
2020/12/20 00:37:39;;;;;;;19.43;13.87;;;4.10;99.90;;;;;;5018339;28;20643;-63
2020/12/20 00:40:06;;;;;;;17.00;12.80;;;4.20;99.90;;;;;;5017962;28;20472;-63
2020/12/20 00:42:32;;;;;;;17.83;12.67;;;4.20;99.90;;;;;;5017890;28;20793;-63
2020/12/20 00:44:59;;;;;;;16.47;11.90;;;4.30;99.90;;;;;;5017869;28;20519;-63
2020/12/20 00:47:25;;;;;;;16.23;11.47;;;4.30;99.90;;;;;;5018075;28;20461;-63
2020/12/20 00:49:51;;;;;;;15.77;11.70;;;4.30;99.90;;;;;;5018034;28;20465;-63
2020/12/20 00:52:17;;;;;;;15.57;10.50;;;4.30;99.90;;;;;;5017595;28;20550;-63
2020/12/20 00:54:43;;;;;;;16.97;11.63;;;4.30;99.90;;;;;;5017806;28;20476;-63
2020/12/20 00:57:10;;;;;;;16.97;11.20;;;4.40;99.90;;;;;;5017553;28;20471;-63
2020/12/20 00:59:36;;;;;;;15.90;11.37;;;4.30;99.90;;;;;;5017240;28;20461;-63
2020/12/20 01:02:02;;;;;;;16.97;10.90;;;4.40;99.90;;;;;;5017643;28;20857;-64
2020/12/20 01:04:28;;;;;;;15.33;10.90;;;4.30;99.90;;;;;;5017440;28;20940;-63
2020/12/20 01:06:55;;;;;;;16.80;10.47;;;4.30;99.90;;;;;;5017515;28;20457;-64
2020/12/20 01:09:22;;;;;;;18.30;12.00;;;4.20;99.90;;;;;;5017088;28;20909;-64
2020/12/20 01:11:48;;;;;;;15.73;11.47;;;4.20;99.90;;;;;;5017467;28;20810;-62
2020/12/20 01:14:15;;;;;;;17.30;11.67;;;4.10;99.90;;;;;;5017615;28;20901;-63
2020/12/20 01:16:41;;;;;;;18.03;11.70;;;4.10;99.90;;;;;;5017340;28;20475;-63
2020/12/20 01:19:07;;;;;;;17.67;11.37;;;4.10;99.90;;;;;;5017694;28;20484;-63
2020/12/20 01:21:34;;;;;;;20.07;11.53;;;4.10;99.90;;;;;;5017378;28;20514;-64
2020/12/20 01:24:00;;;;;;;15.50;11.00;;;4.10;99.90;;;;;;5016903;28;20461;-63
2020/12/20 01:26:28;;;;;;;18.23;12.17;;;4.10;99.90;;;;;;5017325;28;20468;-62
2020/12/20 01:28:55;;;;;;;16.90;11.70;;;4.10;99.90;;;;;;5017030;28;20562;-63
2020/12/20 01:31:22;;;;;;;18.30;12.00;;;4.10;99.90;;;;;;5019593;28;20465;-62
2020/12/20 01:33:48;;;;;;;17.13;12.20;;;4.00;99.90;;;;;;5018150;28;20468;-63
2020/12/20 01:36:16;;;;;;;18.00;13.20;;;4.10;99.90;;;;;;5018310;28;20457;-63
2020/12/20 01:38:42;;;;;;;19.17;11.60;;;4.10;99.90;;;;;;5017898;28;20457;-63
2020/12/20 01:41:09;;;;;;;17.27;10.77;;;4.00;99.90;;;;;;5017109;28;20452;-63
2020/12/20 01:43:46;;;;;;;16.73;10.80;;;4.00;99.90;;;;;;5016871;28;20457;-63
2020/12/20 01:46:14;;;;;;;19.03;13.50;;;4.00;99.90;;;;;;5016600;28;20456;-63
2020/12/20 01:48:41;;;;;;;20.87;13.10;;;4.00;99.90;;;;;;5016475;28;20947;-63
2020/12/20 01:51:08;;;;;;;17.60;11.73;;;4.00;99.90;;;;;;5016793;28;20906;-62
2020/12/20 01:53:34;;;;;;;18.93;12.77;;;4.00;99.90;;;;;;5016648;28;20523;-63
2020/12/20 01:56:01;;;;;;;15.93;11.13;;;3.90;99.90;;;;;;5017984;28;20457;-63
2020/12/20 01:58:28;;;;;;;16.00;11.50;;;4.00;99.90;;;;;;5016809;28;20505;-62
2020/12/20 02:00:55;;;;;;;16.30;11.83;;;4.00;99.90;;;;;;5016209;28;20456;-63
2020/12/20 02:03:22;;;;;;;18.30;11.50;;;4.00;99.90;;;;;;5016459;28;20896;-63
2020/12/20 02:05:49;;;;;;;18.57;12.53;;;3.90;99.90;;;;;;5016692;28;20926;-63
2020/12/20 02:08:16;;;;;;;19.70;11.40;;;4.00;99.90;;;;;;5016431;28;20457;-63
2020/12/20 02:10:42;;;;;;;17.40;12.03;;;4.00;99.90;;;;;;5015943;28;20484;-63
2020/12/20 02:13:08;;;;;;;17.70;12.10;;;4.00;99.90;;;;;;5016603;28;20480;-63
2020/12/20 02:15:35;;;;;;;20.53;11.83;;;4.00;99.90;;;;;;5016400;28;20790;-63
2020/12/20 02:18:01;;;;;;;15.43;10.90;;;4.00;99.90;;;;;;5017291;28;20564;-63
2020/12/20 02:20:27;;;;;;;17.23;12.37;;;3.90;99.90;;;;;;5017191;28;20452;-62
2020/12/20 02:22:55;;;;;;;16.77;11.63;;;3.90;99.90;;;;;;5016742;28;20457;-62
2020/12/20 02:25:21;;;;;;;19.67;12.70;;;3.90;99.90;;;;;;5017344;28;20720;-62
2020/12/20 02:27:47;;;;;;;17.83;12.10;;;3.90;99.90;;;;;;5016460;28;20453;-63
2020/12/20 02:30:13;;;;;;;20.73;12.93;;;3.90;99.90;;;;;;5015430;28;20973;-62
2020/12/20 02:32:39;;;;;;;19.00;12.13;;;3.80;99.90;;;;;;5015948;28;20468;-63
2020/12/20 02:35:05;;;;;;;16.73;11.77;;;3.80;99.90;;;;;;5015851;28;20471;-63
2020/12/20 02:37:32;;;;;;;23.40;13.63;;;3.80;99.90;;;;;;5015767;28;20468;-62
2020/12/20 02:39:59;;;;;;;19.20;12.27;;;3.80;99.90;;;;;;5016064;28;20476;-62
2020/12/20 02:42:26;;;;;;;17.87;12.60;;;3.80;99.90;;;;;;5016523;28;20484;-62
2020/12/20 02:44:52;;;;;;;17.13;12.37;;;3.90;99.90;;;;;;5016589;28;20461;-62
2020/12/20 02:47:18;;;;;;;20.80;12.93;;;3.90;99.90;;;;;;5015934;28;20453;-62
2020/12/20 02:49:44;;;;;;;17.60;12.53;;;3.90;99.90;;;;;;5016630;28;20915;-63
2020/12/20 02:52:10;;;;;;;22.20;14.43;;;3.90;99.90;;;;;;5017283;28;20856;-63
2020/12/20 02:54:36;;;;;;;22.90;13.80;;;3.90;99.90;;;;;;5015983;28;20472;-62
2020/12/20 02:57:03;;;;;;;17.63;11.97;;;3.90;99.90;;;;;;5016344;28;20534;-63
2020/12/20 02:59:29;;;;;;;19.93;13.20;;;3.80;99.90;;;;;;5015467;28;20505;-63
2020/12/20 03:01:55;;;;;;;18.87;12.87;;;3.80;99.90;;;;;;5015607;28;20464;-63
2020/12/20 03:04:21;;;;;;;19.80;12.10;;;3.80;99.90;;;;;;5016358;28;20519;-63
2020/12/20 03:06:47;;;;;;;17.80;12.67;;;3.80;99.90;;;;;;5017682;28;20464;-63
2020/12/20 03:09:13;;;;;;;21.73;12.97;;;3.80;99.90;;;;;;5017383;28;20537;-63
2020/12/20 03:11:39;;;;;;;21.53;14.07;;;3.80;99.90;;;;;;5016286;28;20572;-63
2020/12/20 03:14:06;;;;;;;19.40;13.60;;;3.80;99.90;;;;;;5015897;28;20572;-64
2020/12/20 03:16:32;;;;;;;18.47;12.20;;;3.90;99.90;;;;;;5016124;28;20930;-62
2020/12/20 03:18:58;;;;;;;20.83;12.80;;;3.90;99.90;;;;;;5015918;28;20457;-63
2020/12/20 03:21:24;;;;;;;16.90;12.33;;;3.90;99.90;;;;;;5015510;28;20457;-62
2020/12/20 03:23:51;;;;;;;20.47;13.77;;;3.90;99.90;;;;;;5015281;28;20461;-63
2020/12/20 03:26:17;;;;;;;21.50;13.73;;;3.90;99.90;;;;;;5016156;28;20457;-63
2020/12/20 03:28:43;;;;;;;19.80;14.07;;;3.90;99.90;;;;;;5015341;28;20453;-63
2020/12/20 03:31:10;;;;;;;20.73;14.10;;;3.90;99.90;;;;;;5014888;28;20500;-62
2020/12/20 03:33:36;;;;;;;19.87;12.50;;;3.90;99.90;;;;;;5014874;28;20461;-63
2020/12/20 03:36:02;;;;;;;19.43;14.23;;;4.00;99.90;;;;;;5014669;28;21033;-62
2020/12/20 03:38:28;;;;;;;20.70;13.13;;;4.00;99.90;;;;;;5015455;28;20457;-63
2020/12/20 03:40:54;;;;;;;19.23;13.37;;;4.00;99.90;;;;;;5015131;28;20756;-63
2020/12/20 03:43:20;;;;;;;18.70;13.60;;;4.00;99.90;;;;;;5014952;28;20918;-63
2020/12/20 03:45:46;;;;;;;21.80;14.23;;;4.10;99.90;;;;;;5014838;28;20485;-63
2020/12/20 03:48:13;;;;;;;18.23;13.17;;;4.10;99.90;;;;;;5015289;28;20476;-63
2020/12/20 03:50:39;;;;;;;19.40;13.43;;;4.10;99.90;;;;;;5014675;28;20538;-63
2020/12/20 03:53:05;;;;;;;19.77;12.90;;;4.10;99.90;;;;;;5014764;28;20471;-63
2020/12/20 03:55:31;;;;;;;21.70;14.77;;;4.00;99.90;;;;;;5014582;28;20793;-63
2020/12/20 03:57:57;;;;;;;19.13;13.20;;;4.10;99.90;;;;;;5014800;28;20531;-63
2020/12/20 04:00:23;;;;;;;20.43;13.23;;;4.10;99.90;;;;;;5014957;28;20457;-63
2020/12/20 04:02:49;;;;;;;24.50;13.70;;;4.10;99.90;;;;;;5014624;28;20469;-62
2020/12/20 04:05:16;;;;;;;17.87;13.37;;;4.10;99.90;;;;;;5014426;28;20461;-63
2020/12/20 04:07:43;;;;;;;19.80;13.07;;;4.10;99.90;;;;;;5014429;28;20965;-63
2020/12/20 04:10:09;;;;;;;17.60;12.27;;;4.10;99.90;;;;;;5015174;28;20464;-63
2020/12/20 04:12:35;;;;;;;19.17;13.23;;;4.00;99.90;;;;;;5015522;28;20927;-62
2020/12/20 04:15:02;;;;;;;21.37;13.20;;;4.00;99.90;;;;;;5015674;28;20449;-62
2020/12/20 04:17:28;;;;;;;19.37;12.90;;;4.00;99.90;;;;;;5015540;28;20922;-62
2020/12/20 04:19:54;;;;;;;20.93;13.73;;;4.00;99.90;;;;;;5015029;28;20475;-62
2020/12/20 04:22:21;;;;;;;23.13;14.10;;;4.00;99.90;;;;;;5015563;28;20484;-62
2020/12/20 04:24:47;;;;;;;19.63;13.50;;;4.00;99.90;;;;;;5016214;28;20456;-62
2020/12/20 04:27:13;;;;;;;20.37;14.00;;;4.00;99.90;;;;;;5015750;28;20460;-63
2020/12/20 04:29:39;;;;;;;20.03;13.80;;;4.00;99.90;;;;;;5014525;28;20527;-63
2020/12/20 04:32:05;;;;;;;18.90;12.20;;;3.90;99.90;;;;;;5014525;28;20481;-62
2020/12/20 04:34:32;;;;;;;19.43;13.40;;;3.90;99.90;;;;;;5016136;28;20457;-63
2020/12/20 04:36:58;;;;;;;20.47;13.70;;;3.90;99.90;;;;;;5020971;28;20457;-62
2020/12/20 04:39:25;;;;;;;21.20;13.40;;;3.80;99.90;;;;;;5019576;28;20495;-63
2020/12/20 04:41:51;;;;;;;23.10;14.90;;;3.80;99.90;;;;;;5020646;28;20452;-63
2020/12/20 04:44:17;;;;;;;22.00;15.43;;;3.80;99.90;;;;;;5018221;28;20468;-63
2020/12/20 04:46:45;;;;;;;23.23;14.17;;;3.70;99.90;;;;;;5018332;28;20456;-63
2020/12/20 04:49:14;;;;;;;23.23;14.63;;;3.70;99.90;;;;;;5018007;28;20467;-63
2020/12/20 04:51:41;;;;;;;21.80;13.90;;;3.80;99.90;;;;;;5017655;28;20965;-63
2020/12/20 04:54:09;;;;;;;20.77;13.30;;;3.80;99.90;;;;;;5018146;28;20461;-62
2020/12/20 04:56:37;;;;;;;23.23;13.07;;;3.90;99.90;;;;;;5017582;28;20456;-63
2020/12/20 04:59:05;;;;;;;18.30;12.90;;;3.90;99.90;;;;;;5017718;28;20467;-63
2020/12/20 05:01:31;;;;;;;20.23;14.73;;;3.90;99.90;;;;;;5017839;28;20457;-63
2020/12/20 05:03:57;;;;;;;20.80;14.90;;;3.80;99.90;;;;;;5017750;28;20854;-63
2020/12/20 05:06:25;;;;;;;20.17;12.63;;;3.90;99.90;;;;;;5018509;28;20457;-63
2020/12/20 05:08:58;;;;;;;18.50;12.43;;;3.90;99.90;;;;;;5017550;28;20841;-63
2020/12/20 05:11:36;;;;;;;19.50;13.60;;;3.90;99.90;;;;;;5017703;28;20472;-62
2020/12/20 05:14:04;;;;;;;20.27;14.43;;;3.90;99.90;;;;;;5017513;28;20532;-64
2020/12/20 05:16:31;;;;;;;20.70;13.73;;;3.90;99.90;;;;;;5017329;28;20457;-62
2020/12/20 05:18:58;;;;;;;19.27;13.67;;;3.90;99.90;;;;;;5017373;28;20767;-64
2020/12/20 05:21:26;;;;;;;20.57;14.30;;;3.90;99.90;;;;;;5016964;28;20457;-63
2020/12/20 05:23:52;;;;;;;20.23;14.17;;;3.80;99.90;;;;;;5017417;28;20457;-65
2020/12/20 05:26:24;;;;;;;18.30;13.17;;;3.80;99.90;;;;;;5017777;28;21009;-63
2020/12/20 05:28:51;;;;;;;23.00;14.00;;;3.70;99.90;;;;;;5016928;28;20480;-64
2020/12/20 05:31:17;;;;;;;22.80;14.80;;;3.70;99.90;;;;;;5017340;28;20476;-63
2020/12/20 05:33:43;;;;;;;23.20;14.70;;;3.70;99.90;;;;;;5017119;28;20485;-63
2020/12/20 05:36:09;;;;;;;23.83;15.03;;;3.70;99.90;;;;;;5016901;28;20498;-62
2020/12/20 05:38:37;;;;;;;19.47;14.10;;;3.60;99.90;;;;;;5017711;28;20467;-62
2020/12/20 05:41:03;;;;;;;21.40;14.57;;;3.50;99.90;;;;;;5016908;28;20457;-63
2020/12/20 05:43:30;;;;;;;22.17;15.30;;;3.50;99.90;;;;;;5016662;28;20456;-64
2020/12/20 05:45:58;;;;;;;23.60;15.47;;;3.50;99.90;;;;;;5016700;28;20453;-62
2020/12/20 05:48:26;;;;;;;21.03;14.33;;;3.60;99.90;;;;;;5016928;28;20470;-62
2020/12/20 05:50:53;;;;;;;22.30;15.20;;;3.60;99.90;;;;;;5016918;28;20481;-62
2020/12/20 05:53:27;;;;;;;20.20;14.17;;;3.50;99.90;;;;;;5016754;28;20461;-63
2020/12/20 05:55:55;;;;;;;20.40;14.43;;;3.50;99.90;;;;;;5017094;28;20816;-62
2020/12/20 05:58:21;;;;;;;23.57;14.83;;;3.50;99.90;;;;;;5016515;28;20875;-63
2020/12/20 06:00:47;;;;;;;23.37;15.10;;;3.50;99.90;;;;;;5016920;28;20457;-62
2020/12/20 06:03:15;;;;;;;21.30;14.33;;;3.50;99.90;;;;;;5016669;28;20465;-62
2020/12/20 06:05:43;;;;;;;20.17;13.53;;;3.50;99.90;;;;;;5016912;28;20480;-63
2020/12/20 06:08:11;;;;;;;23.13;15.30;;;3.40;99.90;;;;;;5016473;28;20457;-63
2020/12/20 06:10:39;;;;;;;25.80;14.63;;;3.40;99.90;;;;;;5016351;28;20533;-63
2020/12/20 06:13:08;;;;;;;23.87;14.10;;;3.30;99.90;;;;;;5016341;28;20457;-62
2020/12/20 06:15:37;;;;;;;23.67;15.77;;;3.30;99.90;;;;;;5016336;28;20571;-63
2020/12/20 06:18:09;;;;;;;23.50;14.90;;;3.30;99.90;;;;;;5016638;28;20764;-63
2020/12/20 06:20:50;;;;;;;23.20;15.60;;;3.30;99.90;;;;;;5016457;28;20503;-62
2020/12/20 06:23:18;;;;;;;22.50;15.20;;;3.20;99.90;;;;;;5016209;28;20449;-63
2020/12/20 06:25:46;;;;;;;21.33;14.87;;;3.20;99.90;;;;;;5015938;28;20461;-63
2020/12/20 06:28:16;;;;;;;24.30;15.50;;;3.20;99.90;;;;;;5016007;28;20472;-63
2020/12/20 06:30:43;;;;;;;25.33;16.90;;;3.10;99.90;;;;;;5015568;28;20490;-62
2020/12/20 06:33:15;;;;;;;22.40;13.90;;;3.10;99.90;;;;;;5016182;28;20526;-62
2020/12/20 06:35:41;;;;;;;20.60;13.73;;;3.20;99.90;;;;;;5016121;28;20445;-63
2020/12/20 06:38:13;;;;;;;25.30;16.00;;;3.20;99.90;;;;;;5015881;28;20487;-63
2020/12/20 06:40:44;;;;;;;24.43;15.73;;;3.20;99.90;;;;;;5015889;28;20445;-62
2020/12/20 06:43:10;;;;;;;27.33;15.67;;;3.10;99.90;;;;;;5016171;28;20468;-63
2020/12/20 06:45:43;;;;;;;25.90;16.80;;;3.10;99.90;;;;;;5016054;28;20437;-63
2020/12/20 06:48:10;;;;;;;26.00;15.60;;;3.10;99.90;;;;;;5016533;28;20471;-63
2020/12/20 06:50:42;;;;;;;22.97;15.90;;;3.10;99.90;;;;;;5016769;28;20471;-64
2020/12/20 06:53:09;;;;;;;25.87;17.20;;;3.10;99.90;;;;;;5016916;28;20548;-65
2020/12/20 06:55:36;;;;;;;26.80;17.37;;;3.10;99.90;;;;;;5017961;28;20456;-65
2020/12/20 06:58:16;;;;;;;26.00;16.07;;;3.10;99.90;;;;;;5017131;28;20461;-63
2020/12/20 07:00:50;;;;;;;22.63;16.97;;;3.10;99.90;;;;;;5016600;28;20464;-62
2020/12/20 07:03:40;;;;;;;25.50;16.57;;;3.10;99.90;;;;;;5016453;28;20491;-63
2020/12/20 07:06:13;;;;;;;22.27;15.40;;;3.10;99.90;;;;;;5012841;28;20457;-63
2020/12/20 07:08:40;;;;;;;24.20;16.00;;;3.10;99.90;;;;;;5015952;28;20510;-63
2020/12/20 07:11:18;;;;;;;21.77;14.07;;;3.10;99.90;;;;;;5015600;28;20484;-62
2020/12/20 07:13:46;;;;;;;25.30;16.10;;;3.10;99.90;;;;;;5015559;28;20547;-63
2020/12/20 07:16:14;;;;;;;24.57;16.73;;;3.10;99.90;;;;;;5015160;28;20468;-63
2020/12/20 07:18:52;;;;;;;27.00;16.20;;;3.10;99.90;;;;;;5015374;28;20484;-64
2020/12/20 07:21:54;;;;;;;26.63;17.63;;;3.10;99.90;;;;;;5015431;28;20818;-63
2020/12/20 07:24:22;;;;;;;23.80;16.13;;;3.20;99.90;;;;;;5015461;28;20440;-63
2020/12/20 07:26:50;;;;;;;26.33;15.80;;;3.20;99.90;;;;;;5015959;28;20465;-63
2020/12/20 07:29:17;;;;;;;27.80;16.33;;;3.20;99.90;;;;;;5015256;28;20492;-63
2020/12/20 07:31:44;;;;;;;29.53;18.33;;;3.20;99.90;;;;;;5015899;28;20492;-62
2020/12/20 07:34:10;;;;;;;26.17;16.07;;;3.20;99.90;;;;;;5015576;28;20520;-63
2020/12/20 07:36:38;;;;;;;28.80;17.10;;;3.20;99.90;;;;;;5016114;28;20461;-63
2020/12/20 07:39:05;;;;;;;24.33;16.87;;;3.10;99.90;;;;;;5016971;28;20942;-63
2020/12/20 07:41:32;;;;;;;28.20;16.97;;;3.10;99.90;;;;;;5018696;28;20463;-63
2020/12/20 07:44:03;;;;;;;29.90;17.30;;;3.10;99.90;;;;;;5015768;28;20460;-64
2020/12/20 07:46:31;;;;;;;26.17;17.10;;;3.10;99.90;;;;;;5015498;28;20456;-64
2020/12/20 07:49:02;;;;;;;26.00;17.10;;;3.10;99.90;;;;;;5015125;28;20835;-62
2020/12/20 07:51:28;;;;;;;25.97;15.70;;;3.10;99.90;;;;;;5015616;28;20465;-63
2020/12/20 07:53:55;;;;;;;29.40;18.73;;;3.20;99.90;;;;;;5014694;28;20465;-63
2020/12/20 07:56:22;;;;;;;26.37;16.90;;;3.20;99.90;;;;;;5015522;28;20555;-63
2020/12/20 07:58:49;;;;;;;26.00;17.03;;;3.20;99.90;;;;;;5016128;28;20468;-65
2020/12/20 08:01:16;;;;;;;26.90;17.30;;;3.30;99.90;;;;;;5015573;28;20532;-63
2020/12/20 08:03:42;;;;;;;28.30;17.20;;;3.20;99.90;;;;;;5015736;28;20457;-63
2020/12/20 08:06:09;;;;;;;28.77;17.17;;;3.30;99.90;;;;;;5015499;28;20456;-64
2020/12/20 08:08:36;;;;;;;24.00;17.33;;;3.30;99.90;;;;;;5015175;28;20472;-64
2020/12/20 08:11:03;;;;;;;30.90;16.20;;;3.30;99.90;;;;;;5018347;28;20488;-63
2020/12/20 08:13:30;;;;;;;23.63;16.10;;;3.40;99.90;;;;;;5019119;28;20531;-63
2020/12/20 08:15:57;;;;;;;28.80;18.30;;;3.40;99.90;;;;;;5018966;28;20746;-63
2020/12/20 08:18:24;;;;;;;29.00;19.13;;;3.40;99.90;;;;;;5018784;28;20503;-63
2020/12/20 08:20:51;;;;;;;25.93;16.90;;;3.40;99.90;;;;;;5018750;28;20467;-64
2020/12/20 08:23:18;;;;;;;27.13;17.40;;;3.40;99.90;;;;;;5018940;28;20922;-63
2020/12/20 08:25:45;;;;;;;29.10;17.30;;;3.40;99.90;;;;;;5018521;28;20471;-64
2020/12/20 08:28:11;;;;;;;28.30;17.60;;;3.40;99.90;;;;;;5018464;28;20468;-63
2020/12/20 08:30:38;;;;;;;27.17;16.83;;;3.50;99.90;;;;;;5018213;28;20493;-63
2020/12/20 08:33:04;;;;;;;29.33;17.77;;;3.50;99.90;;;;;;5018743;28;20472;-62
2020/12/20 08:35:31;;;;;;;27.13;17.10;;;3.50;99.90;;;;;;5018576;28;20460;-63
2020/12/20 08:37:58;;;;;;;23.53;15.80;;;3.50;99.90;;;;;;5018478;28;20505;-62
2020/12/20 08:40:30;;;;;;;28.93;16.87;;;3.50;99.90;;;;;;5018452;28;20790;-63
2020/12/20 08:42:58;;;;;;;28.63;17.63;;;3.50;99.90;;;;;;5019561;28;20452;-63
2020/12/20 08:45:25;;;;;;;26.57;18.00;;;3.50;99.90;;;;;;5018915;28;20504;-63
2020/12/20 08:47:59;;;;;;;24.43;16.23;;;3.50;99.90;;;;;;5019071;28;20456;-64
2020/12/20 08:50:27;;;;;;;29.00;17.57;;;3.60;99.90;;;;;;5018220;28;20575;-63
2020/12/20 08:52:59;;;;;;;26.67;15.07;;;3.60;99.90;;;;;;5018121;28;20484;-62
2020/12/20 08:55:25;;;;;;;23.23;16.37;;;3.70;99.90;;;;;;5018167;28;20450;-64
2020/12/20 08:58:01;;;;;;;28.33;17.00;;;3.60;99.90;;;;;;5018061;28;20780;-63
2020/12/20 09:00:27;;;;;;;24.63;16.07;;;3.60;99.90;;;;;;5018318;28;20874;-63
2020/12/20 09:02:57;;;;;;;24.33;15.33;;;3.60;99.90;;;;;;5017896;28;20453;-64
2020/12/20 09:05:27;;;;;;;27.40;17.40;;;3.60;99.90;;;;;;5018353;28;20445;-63
2020/12/20 09:07:53;;;;;;;28.13;18.00;;;3.70;99.90;;;;;;5017972;28;20965;-64
2020/12/20 09:10:24;;;;;;;24.53;15.57;;;3.70;99.90;;;;;;5018160;28;20460;-63
2020/12/20 09:12:51;;;;;;;27.10;16.70;;;3.80;99.90;;;;;;5018694;28;20964;-65
2020/12/20 09:15:18;;;;;;;30.40;17.97;;;3.90;99.90;;;;;;5018920;28;20468;-62
2020/12/20 09:17:46;;;;;;;25.53;16.10;;;4.00;99.90;;;;;;5018492;28;20467;-63
2020/12/20 09:20:14;;;;;;;25.77;16.07;;;4.00;99.90;;;;;;5018519;28;20472;-64
2020/12/20 09:22:49;;;;;;;25.50;16.67;;;4.00;99.90;;;;;;5020462;28;20457;-63
2020/12/20 09:25:30;;;;;;;28.57;16.10;;;4.00;99.90;;;;;;5018007;28;20445;-63
2020/12/20 09:28:02;;;;;;;28.33;15.90;;;4.00;99.90;;;;;;5019574;28;20555;-63
2020/12/20 09:30:34;;;;;;;23.40;16.27;;;4.10;99.90;;;;;;5018010;28;20662;-63
2020/12/20 09:33:00;;;;;;;22.43;14.70;;;4.20;99.90;;;;;;5018545;28;20512;-63
2020/12/20 09:35:26;;;;;;;28.10;15.97;;;4.20;99.90;;;;;;5019318;28;20467;-63
2020/12/20 09:37:54;;;;;;;22.10;14.20;;;4.10;99.90;;;;;;5017378;28;20949;-63
2020/12/20 09:40:20;;;;;;;21.60;14.03;;;4.10;99.90;;;;;;5017126;28;20461;-62
2020/12/20 09:42:47;;;;;;;24.30;16.27;;;4.10;99.90;;;;;;5017233;28;20456;-63
2020/12/20 09:45:14;;;;;;;21.43;14.13;;;4.20;99.90;;;;;;5017160;28;20464;-63
2020/12/20 09:47:41;;;;;;;22.63;14.87;;;4.10;99.90;;;;;;5017497;28;20490;-64
2020/12/20 09:50:08;;;;;;;20.20;14.03;;;4.20;99.90;;;;;;5018162;28;20788;-64
2020/12/20 09:52:35;;;;;;;24.20;15.73;;;4.20;99.90;;;;;;5017894;28;20480;-63
2020/12/20 09:55:01;;;;;;;22.60;14.57;;;4.30;99.90;;;;;;5018087;28;20460;-65
2020/12/20 09:57:28;;;;;;;22.50;14.40;;;4.30;99.90;;;;;;5019570;28;20519;-63
2020/12/20 09:59:54;;;;;;;22.30;14.30;;;4.40;99.90;;;;;;5020584;28;20472;-64
2020/12/20 10:02:21;;;;;;;21.93;14.10;;;4.50;99.90;;;;;;5017751;28;20480;-64
2020/12/20 10:04:47;;;;;;;22.43;14.60;;;4.60;99.90;;;;;;5016865;28;20457;-63
2020/12/20 10:07:13;;;;;;;20.10;12.67;;;4.70;99.90;;;;;;5016636;28;20522;-73
2020/12/20 10:09:39;;;;;;;22.13;14.40;;;4.80;99.90;;;;;;5016856;28;20465;-63
2020/12/20 10:12:05;;;;;;;20.33;13.10;;;4.90;99.90;;;;;;5016445;28;20480;-62
2020/12/20 10:14:32;;;;;;;22.10;13.30;;;5.00;99.90;;;;;;5016729;28;20460;-64
2020/12/20 10:16:58;;;;;;;21.60;13.33;;;5.20;99.90;;;;;;5016091;28;20449;-64
2020/12/20 10:19:25;;;;;;;19.30;12.63;;;5.20;99.90;;;;;;5016498;28;20465;-62
2020/12/20 10:21:52;;;;;;;22.70;13.77;;;5.30;99.90;;;;;;5017349;28;20468;-64
2020/12/20 10:24:19;;;;;;;21.07;14.17;;;5.50;99.90;;;;;;5016689;28;20460;-63
2020/12/20 10:26:45;;;;;;;19.50;12.47;;;5.50;99.90;;;;;;5017020;28;20798;-70
2020/12/20 10:29:13;;;;;;;19.10;13.50;;;5.60;99.90;;;;;;5018272;28;20508;-66
2020/12/20 10:31:40;;;;;;;18.70;13.30;;;5.70;99.90;;;;;;5016224;28;20546;-67
2020/12/20 10:34:06;;;;;;;17.10;11.87;;;5.80;99.90;;;;;;5015453;28;20757;-65
2020/12/20 10:36:33;;;;;;;18.13;12.57;;;5.90;99.90;;;;;;5016174;28;20788;-65
2020/12/20 10:38:59;;;;;;;22.40;12.50;;;6.10;99.90;;;;;;5015805;28;20472;-65
2020/12/20 10:41:25;;;;;;;16.47;11.83;;;6.20;99.90;;;;;;5016075;28;20453;-66
2020/12/20 10:43:51;;;;;;;18.33;12.70;;;6.20;99.90;;;;;;5016116;28;20833;-66
2020/12/20 10:46:17;;;;;;;17.47;12.43;;;6.20;99.90;;;;;;5016468;28;20471;-65
2020/12/20 10:48:44;;;;;;;16.10;12.30;;;6.30;99.90;;;;;;5017203;28;20495;-67
2020/12/20 10:51:10;;;;;;;19.07;12.23;;;6.10;99.90;;;;;;5016044;28;20867;-65
2020/12/20 10:53:38;;;;;;;18.90;12.97;;;6.10;99.90;;;;;;5015841;28;20457;-65
2020/12/20 10:56:05;;;;;;;21.33;12.60;;;6.10;99.90;;;;;;5015867;28;20461;-66
2020/12/20 10:58:31;;;;;;;19.30;12.03;;;6.10;99.90;;;;;;5015572;28;20547;-67
2020/12/20 11:00:57;;;;;;;18.03;12.20;;;6.00;99.90;;;;;;5015560;28;20461;-66
2020/12/20 11:03:23;;;;;;;16.73;11.17;;;6.10;99.90;;;;;;5015774;28;20464;-66
2020/12/20 11:05:49;;;;;;;19.17;13.03;;;6.20;99.90;;;;;;5015716;28;20461;-68
2020/12/20 11:08:15;;;;;;;15.00;11.63;;;6.10;99.90;;;;;;5016395;28;20465;-67
2020/12/20 11:10:42;;;;;;;18.07;11.90;;;6.10;99.90;;;;;;5015605;28;20566;-67
2020/12/20 11:13:08;;;;;;;18.50;10.97;;;6.20;99.90;;;;;;5015629;28;20468;-65
2020/12/20 11:15:34;;;;;;;19.43;11.90;;;6.20;99.90;;;;;;5015874;28;20463;-66
2020/12/20 11:18:00;;;;;;;14.13;11.10;;;6.20;99.90;;;;;;5015439;28;20757;-64
2020/12/20 11:20:26;;;;;;;19.37;13.13;;;6.20;99.90;;;;;;5015818;28;20739;-67
2020/12/20 11:22:54;;;;;;;14.47;10.30;;;6.30;99.90;;;;;;5015336;28;20547;-66
2020/12/20 11:25:20;;;;;;;15.33;10.57;;;6.20;99.90;;;;;;5016703;28;20910;-65
2020/12/20 11:27:47;;;;;;;12.93;10.40;;;6.20;99.90;;;;;;5016179;28;20483;-65
2020/12/20 11:30:13;;;;;;;15.60;11.30;;;6.20;99.90;;;;;;5015735;28;20578;-67
2020/12/20 11:32:39;;;;;;;18.00;11.67;;;6.30;99.90;;;;;;5014750;28;20982;-67
2020/12/20 11:35:05;;;;;;;19.30;12.67;;;6.40;99.90;;;;;;5015255;28;20484;-67
2020/12/20 11:37:32;;;;;;;16.13;10.33;;;6.50;99.90;;;;;;5015635;28;20460;-66
2020/12/20 11:39:58;;;;;;;15.50;11.10;;;6.60;99.90;;;;;;5015698;28;20526;-66
2020/12/20 11:42:24;;;;;;;14.03;10.27;;;6.70;99.90;;;;;;5015712;28;20766;-67
2020/12/20 11:44:51;;;;;;;16.23;11.03;;;6.70;99.90;;;;;;5019595;28;20542;-67
2020/12/20 11:47:18;;;;;;;16.77;11.40;;;6.80;99.90;;;;;;5022158;28;20457;-65
2020/12/20 11:49:44;;;;;;;16.50;10.57;;;6.90;99.90;;;;;;5022294;28;20456;-65
2020/12/20 11:52:10;;;;;;;15.57;10.97;;;7.00;99.90;;;;;;5022062;28;20543;-65
2020/12/20 11:54:37;;;;;;;16.00;10.30;;;7.00;99.90;;;;;;5022314;28;20461;-64
2020/12/20 11:57:03;;;;;;;15.80;10.87;;;7.10;99.90;;;;;;5021764;28;20480;-64
2020/12/20 11:59:31;;;;;;;15.93;10.20;;;7.20;99.90;;;;;;5021413;28;20518;-65
2020/12/20 12:02:00;;;;;;;16.90;11.90;;;7.30;99.90;;;;;;5021575;28;20472;-64
2020/12/20 12:04:27;;;;;;;15.13;10.20;;;7.30;99.90;;;;;;5021750;28;20906;-67
2020/12/20 12:06:53;;;;;;;16.93;10.77;;;7.40;99.90;;;;;;5021427;28;20467;-65
2020/12/20 12:09:19;;;;;;;14.40;10.97;;;7.30;99.90;;;;;;5021138;28;20476;-66
2020/12/20 12:11:45;;;;;;;16.17;11.13;;;7.30;99.90;;;;;;5021392;28;20782;-65
2020/12/20 12:14:11;;;;;;;14.83;10.17;;;7.20;99.90;;;;;;5021335;28;20461;-65
2020/12/20 12:16:37;;;;;;;14.90;10.30;;;7.10;99.90;;;;;;5021366;28;20471;-66
2020/12/20 12:19:04;;;;;;;14.50;9.87;;;7.10;99.90;;;;;;5022237;28;21019;-65
2020/12/20 12:21:30;;;;;;;13.00;9.60;;;6.90;99.90;;;;;;5022698;28;20453;-64
2020/12/20 12:23:56;;;;;;;15.53;11.40;;;6.90;99.90;;;;;;5021622;28;20457;-65
2020/12/20 12:26:22;;;;;;;14.00;10.53;;;6.80;99.90;;;;;;5021183;28;20464;-65
2020/12/20 12:28:48;;;;;;;15.87;10.97;;;6.90;99.90;;;;;;5021088;28;20885;-65
2020/12/20 12:31:14;;;;;;;17.00;10.67;;;6.90;99.90;;;;;;5021242;28;20473;-64
2020/12/20 12:33:40;;;;;;;14.57;11.00;;;7.20;99.90;;;;;;5021266;28;20467;-64
2020/12/20 12:36:07;;;;;;;16.60;11.40;;;7.50;99.90;;;;;;5021036;28;20508;-66